createdAt,value
2019-02-27T00:00:54.603Z,62.17
2019-02-27T00:03:22.688Z,62.87
2019-02-27T00:05:50.855Z,62.60
2019-02-27T00:08:18.775Z,62.91
2019-02-27T00:10:46.947Z,63.11
2019-02-27T00:13:14.939Z,62.42
2019-02-27T00:15:42.910Z,62.34
2019-02-27T00:18:10.929Z,63.04
2019-02-27T00:20:38.956Z,63.36
2019-02-27T00:23:07.080Z,63.64
2019-02-27T00:25:36.211Z,63.78
2019-02-27T00:28:05.071Z,63.84
2019-02-27T00:30:33.106Z,62.30
2019-02-27T00:33:01.169Z,62.46
2019-02-27T00:35:29.109Z,62.51
2019-02-27T00:37:57.268Z,63.20
2019-02-27T00:40:25.338Z,63.67
2019-02-27T00:42:54.341Z,63.76
2019-02-27T00:45:23.917Z,64.12
2019-02-27T00:47:53.257Z,64.11
2019-02-27T00:50:21.738Z,63.53
2019-02-27T00:52:51.123Z,63.78
2019-02-27T00:55:19.735Z,63.49
2019-02-27T00:57:47.784Z,63.15
2019-02-27T01:00:16.406Z,62.93
2019-02-27T01:02:44.378Z,63.03
2019-02-27T01:05:12.747Z,63.27
2019-02-27T01:07:40.758Z,62.76
2019-02-27T01:10:11.962Z,62.65
2019-02-27T01:12:38.944Z,62.85
2019-02-27T01:15:07.932Z,62.24
2019-02-27T01:17:37.300Z,62.24
2019-02-27T01:20:05.372Z,62.15
2019-02-27T01:22:33.447Z,61.48
2019-02-27T01:25:02.421Z,61.38
2019-02-27T01:27:30.278Z,60.77
2019-02-27T01:29:58.294Z,60.56
2019-02-27T01:32:26.307Z,61.06
2019-02-27T01:34:54.135Z,60.56
2019-02-27T01:37:21.983Z,60.63
2019-02-27T01:39:49.869Z,60.46
2019-02-27T01:42:17.892Z,59.24
2019-02-27T01:44:46.678Z,59.04
2019-02-27T01:47:15.057Z,58.57
2019-02-27T01:49:43.445Z,58.30
2019-02-27T01:52:11.704Z,57.75
2019-02-27T01:54:39.845Z,57.71
2019-02-27T01:57:07.875Z,57.51
2019-02-27T01:59:36.036Z,57.31
2019-02-27T02:02:04.225Z,57.66
2019-02-27T02:04:32.289Z,58.09
2019-02-27T02:07:00.234Z,58.31
2019-02-27T02:09:34.764Z,58.80
2019-02-27T02:12:08.812Z,58.18
2019-02-27T02:15:08.498Z,59.19
2019-02-27T02:18:13.947Z,58.97
2019-02-27T02:21:11.660Z,59.23
2019-02-27T02:24:29.806Z,59.53
2019-02-27T02:27:11.658Z,58.31
2019-02-27T02:30:15.615Z,58.71
2019-02-27T02:33:11.389Z,58.25
2019-02-27T02:36:17.093Z,58.72
2019-02-27T02:39:19.126Z,59.59
2019-02-27T02:42:30.654Z,58.71
2019-02-27T02:45:32.767Z,59.67
2019-02-27T02:48:32.760Z,58.13
2019-02-27T02:52:04.628Z,58.90
2019-02-27T02:55:11.902Z,58.14
2019-02-27T02:57:47.312Z,58.95
2019-02-27T03:00:40.251Z,58.09
2019-02-27T03:03:37.276Z,58.65
2019-02-27T03:07:13.694Z,58.30
2019-02-27T03:10:24.528Z,59.07
2019-02-27T03:13:23.408Z,58.64
2019-02-27T03:16:15.049Z,57.84
2019-02-27T03:19:18.012Z,57.97
2019-02-27T03:22:03.741Z,58.39
2019-02-27T03:25:25.957Z,56.90
2019-02-27T03:28:21.201Z,55.56
2019-02-27T03:31:19.957Z,58.08
2019-02-27T03:34:53.802Z,58.04
2019-02-27T03:37:37.902Z,56.61
2019-02-27T03:40:34.274Z,57.75
2019-02-27T03:43:45.643Z,58.15
2019-02-27T03:46:43.956Z,58.78
2019-02-27T03:49:39.615Z,58.78
2019-02-27T03:52:55.455Z,59.49
2019-02-27T03:56:00.704Z,60.21
2019-02-27T03:59:42.040Z,60.30
2019-02-27T04:02:44.881Z,60.88
2019-02-27T04:06:09.538Z,61.80
2019-02-27T04:08:57.206Z,61.66
2019-02-27T04:11:25.293Z,62.87
2019-02-27T04:13:53.153Z,63.31
2019-02-27T04:16:21.223Z,63.09
2019-02-27T04:18:49.157Z,63.13
2019-02-27T04:21:17.042Z,63.73
2019-02-27T04:23:48.964Z,64.15
2019-02-27T04:26:14.804Z,63.75
2019-02-27T04:28:42.624Z,63.92
2019-02-27T04:31:10.557Z,64.08
2019-02-27T04:33:38.778Z,64.51
2019-02-27T04:36:06.718Z,64.55
2019-02-27T04:38:34.799Z,64.57
2019-02-27T04:41:02.671Z,65.08
2019-02-27T04:43:32.301Z,65.47
2019-02-27T04:46:00.885Z,65.71
2019-02-27T04:48:29.931Z,65.58
2019-02-27T04:50:58.660Z,65.75
2019-02-27T04:53:31.486Z,65.29
2019-02-27T04:55:56.855Z,66.10
2019-02-27T04:58:24.908Z,66.11
2019-02-27T05:00:53.071Z,66.32
2019-02-27T05:03:21.061Z,66.57
2019-02-27T05:05:49.011Z,66.34
2019-02-27T05:08:17.179Z,66.11
2019-02-27T05:10:45.374Z,66.35
2019-02-27T05:13:13.317Z,66.50
2019-02-27T05:15:41.398Z,66.52
2019-02-27T05:18:10.444Z,67.12
2019-02-27T05:20:38.461Z,67.49
2019-02-27T05:23:06.337Z,67.67
2019-02-27T05:25:34.284Z,67.68
2019-02-27T05:28:02.135Z,68.04
2019-02-27T05:30:31.023Z,67.96
2019-02-27T05:33:02.012Z,67.81
2019-02-27T05:35:28.829Z,67.70
2019-02-27T05:37:56.965Z,68.42
2019-02-27T05:40:25.981Z,68.47
2019-02-27T05:42:54.539Z,68.56
2019-02-27T05:45:22.747Z,68.32
2019-02-27T05:47:50.931Z,68.49
2019-02-27T05:50:18.903Z,68.89
2019-02-27T05:52:48.789Z,69.11
2019-02-27T05:55:16.871Z,68.91
2019-02-27T05:57:44.799Z,68.97
2019-02-27T06:00:15.153Z,69.42
2019-02-27T06:02:45.012Z,69.34
2019-02-27T06:05:13.138Z,69.69
2019-02-27T06:07:41.174Z,69.93
2019-02-27T06:10:11.698Z,70.55
2019-02-27T06:12:40.722Z,70.74
2019-02-27T06:15:11.720Z,69.94
2019-02-27T06:17:43.360Z,69.64
2019-02-27T06:20:09.752Z,69.07
2019-02-27T06:22:37.958Z,68.87
2019-02-27T06:25:07.588Z,69.06
2019-02-27T06:27:37.170Z,69.19
2019-02-27T06:30:06.780Z,68.68
2019-02-27T06:32:35.770Z,68.19
2019-02-27T06:35:04.075Z,67.61
2019-02-27T06:37:32.006Z,67.78
2019-02-27T06:40:00.008Z,67.50
2019-02-27T06:42:28.183Z,66.64
2019-02-27T06:44:56.360Z,66.28
2019-02-27T06:47:24.253Z,65.83
2019-02-27T06:49:52.561Z,65.00
2019-02-27T06:52:20.610Z,65.12
2019-02-27T06:54:51.939Z,63.59
2019-02-27T06:57:18.058Z,63.38
2019-02-27T06:59:45.950Z,61.78
2019-02-27T07:02:13.830Z,61.19
2019-02-27T07:04:41.773Z,60.80
2019-02-27T07:07:09.871Z,60.71
2019-02-27T07:09:38.017Z,59.79
2019-02-27T07:12:07.227Z,59.45
2019-02-27T07:14:36.496Z,59.29
2019-02-27T07:17:05.395Z,58.24
2019-02-27T07:19:33.370Z,57.86
2019-02-27T07:22:01.386Z,57.82
2019-02-27T07:24:30.557Z,57.37
2019-02-27T07:26:59.157Z,56.02
2019-02-27T07:29:28.058Z,55.78
2019-02-27T07:31:57.284Z,54.88
2019-02-27T07:34:28.022Z,54.47
2019-02-27T07:36:55.911Z,52.61
2019-02-27T07:39:23.981Z,52.48
2019-02-27T07:41:51.725Z,52.07
2019-02-27T07:44:19.614Z,50.85
2019-02-27T07:46:47.477Z,49.84
2019-02-27T07:49:15.593Z,47.96
2019-02-27T07:51:43.544Z,47.42
2019-02-27T07:54:11.590Z,47.26
2019-02-27T07:56:39.513Z,46.00
2019-02-27T07:59:07.461Z,46.03
2019-02-27T08:01:43.498Z,45.85
2019-02-27T08:04:05.606Z,45.53
2019-02-27T08:06:35.087Z,45.32
2019-02-27T08:09:04.644Z,45.47
2019-02-27T08:11:33.619Z,45.19
2019-02-27T08:14:04.460Z,45.00
2019-02-27T08:16:32.363Z,45.61
2019-02-27T08:19:00.227Z,45.90
2019-02-27T08:21:28.137Z,46.24
2019-02-27T08:23:56.199Z,46.95
2019-02-27T08:26:24.054Z,47.17
2019-02-27T08:28:51.991Z,46.45
2019-02-27T08:31:19.843Z,47.13
2019-02-27T08:33:47.918Z,47.16
2019-02-27T08:36:16.880Z,46.73
2019-02-27T08:38:45.030Z,46.71
2019-02-27T08:41:13.100Z,46.65
2019-02-27T08:43:41.893Z,46.60
2019-02-27T08:46:09.871Z,47.13
2019-02-27T08:48:37.892Z,47.47
2019-02-27T08:51:08.522Z,47.87
2019-02-27T08:53:35.662Z,47.35
2019-02-27T08:56:03.525Z,46.89
2019-02-27T08:58:33.016Z,46.93
2019-02-27T09:01:01.758Z,46.60
2019-02-27T09:03:29.944Z,46.50
2019-02-27T09:05:57.817Z,46.57
2019-02-27T09:08:25.644Z,45.76
2019-02-27T09:10:53.644Z,45.97
2019-02-27T09:13:21.671Z,45.95
2019-02-27T09:15:49.671Z,46.22
2019-02-27T09:18:17.865Z,45.67
2019-02-27T09:20:45.801Z,45.24
2019-02-27T09:23:14.083Z,44.74
2019-02-27T09:25:42.440Z,44.59
2019-02-27T09:28:10.425Z,44.50
2019-02-27T09:30:38.512Z,44.20
2019-02-27T09:33:06.377Z,44.64
2019-02-27T09:35:38.515Z,44.52
2019-02-27T09:38:04.301Z,43.87
2019-02-27T09:40:32.368Z,44.17
2019-02-27T09:43:00.398Z,43.91
2019-02-27T09:45:29.603Z,44.00
2019-02-27T09:47:59.967Z,44.17
2019-02-27T09:50:48.359Z,43.76
2019-02-27T09:53:16.914Z,43.68
2019-02-27T09:55:44.974Z,43.60
2019-02-27T09:58:13.151Z,43.60
2019-02-27T10:01:04.194Z,43.41
2019-02-27T10:03:32.914Z,42.90
2019-02-27T10:06:00.977Z,42.23
2019-02-27T10:08:28.960Z,42.11
2019-02-27T10:10:57.069Z,42.17
2019-02-27T10:13:25.387Z,41.88
2019-02-27T10:15:53.488Z,41.68
2019-02-27T10:18:22.183Z,41.27
2019-02-27T10:20:50.369Z,41.56
2019-02-27T10:23:18.445Z,41.21
2019-02-27T10:25:46.560Z,41.05
2019-02-27T10:28:14.476Z,40.79
2019-02-27T10:30:42.414Z,41.00
2019-02-27T10:33:11.829Z,40.91
2019-02-27T10:35:39.978Z,40.78
2019-02-27T10:38:09.758Z,41.61
2019-02-27T10:40:37.621Z,40.57
2019-02-27T10:43:05.747Z,40.49
2019-02-27T10:45:33.724Z,40.53
2019-02-27T10:48:01.788Z,41.91
2019-02-27T10:50:29.552Z,40.38
2019-02-27T10:52:57.586Z,40.31
2019-02-27T10:55:26.989Z,40.91
2019-02-27T10:57:55.265Z,39.37
2019-02-27T11:00:26.266Z,39.48
2019-02-27T11:02:54.324Z,39.59
2019-02-27T11:05:22.229Z,39.32
2019-02-27T11:07:52.715Z,38.72
2019-02-27T11:10:21.779Z,38.97
2019-02-27T11:12:50.093Z,39.14
2019-02-27T11:15:18.425Z,39.01
2019-02-27T11:17:46.630Z,39.20
2019-02-27T11:20:20.252Z,38.85
2019-02-27T11:22:44.639Z,38.59
2019-02-27T11:25:15.444Z,38.45
2019-02-27T11:27:43.865Z,38.09
2019-02-27T11:30:16.478Z,38.22
2019-02-27T11:32:44.464Z,37.04
2019-02-27T11:35:13.384Z,38.49
2019-02-27T11:37:41.470Z,38.40
2019-02-27T11:40:11.512Z,37.41
2019-02-27T11:42:39.429Z,36.41
2019-02-27T11:45:07.704Z,37.34
2019-02-27T11:47:35.627Z,37.57
2019-02-27T11:50:04.440Z,36.88
2019-02-27T11:52:32.247Z,36.76
2019-02-27T11:55:00.439Z,36.35
2019-02-27T11:57:30.502Z,36.56
2019-02-27T11:59:58.075Z,35.26
2019-02-27T12:02:29.091Z,35.44
2019-02-27T12:04:56.665Z,34.72
2019-02-27T12:07:24.717Z,35.29
2019-02-27T12:09:52.791Z,35.31
2019-02-27T12:12:23.398Z,35.25
2019-02-27T12:14:50.683Z,34.72
2019-02-27T12:17:18.612Z,34.06
2019-02-27T12:19:46.571Z,34.11
2019-02-27T12:22:14.547Z,34.28
2019-02-27T12:24:42.507Z,33.99
2019-02-27T12:27:25.698Z,33.92
2019-02-27T12:29:40.522Z,34.79
2019-02-27T12:32:08.773Z,34.99
2019-02-27T12:34:37.213Z,35.19
2019-02-27T12:37:05.779Z,35.26
2019-02-27T12:39:33.792Z,34.65
2019-02-27T12:42:04.160Z,34.22
2019-02-27T12:44:31.679Z,33.68
2019-02-27T12:46:59.694Z,34.01
2019-02-27T12:49:27.795Z,34.44
2019-02-27T12:51:55.702Z,35.96
2019-02-27T12:54:23.584Z,34.98
2019-02-27T12:56:51.591Z,34.42
2019-02-27T12:59:19.545Z,34.24
2019-02-27T13:01:50.931Z,35.63
2019-02-27T13:04:19.910Z,36.62
2019-02-27T13:06:47.258Z,37.02
2019-02-27T13:09:15.535Z,37.31
2019-02-27T13:11:44.976Z,38.06
2019-02-27T13:14:13.094Z,37.92
2019-02-27T13:16:40.976Z,37.61
2019-02-27T13:19:11.006Z,37.21
2019-02-27T13:21:39.234Z,35.63
2019-02-27T13:24:07.212Z,34.90
2019-02-27T13:26:35.458Z,36.25
2019-02-27T13:29:03.766Z,35.32
2019-02-27T13:31:31.753Z,35.09
2019-02-27T13:33:59.685Z,34.66
2019-02-27T13:36:27.947Z,34.23
2019-02-27T13:38:55.831Z,33.46
2019-02-27T13:41:25.527Z,33.67
2019-02-27T13:43:53.417Z,34.17
2019-02-27T13:46:22.745Z,34.63
2019-02-27T13:48:50.780Z,34.38
2019-02-27T13:51:18.851Z,34.03
2019-02-27T13:53:46.816Z,34.19
2019-02-27T13:56:16.196Z,34.20
2019-02-27T13:58:44.186Z,33.31
2019-02-27T14:01:12.215Z,33.22
2019-02-27T14:03:40.120Z,33.30
2019-02-27T14:06:09.418Z,33.31
2019-02-27T14:08:37.611Z,33.54
2019-02-27T14:11:05.860Z,32.94
2019-02-27T14:13:34.237Z,32.46
2019-02-27T14:16:02.299Z,32.03
2019-02-27T14:18:30.559Z,32.25
2019-02-27T14:20:58.985Z,32.54
2019-02-27T14:23:28.700Z,31.67
2019-02-27T14:25:56.779Z,31.35
2019-02-27T14:28:24.739Z,31.06
2019-02-27T14:30:52.520Z,31.77
2019-02-27T14:33:20.783Z,31.74
2019-02-27T14:35:48.936Z,31.70
2019-02-27T14:38:16.835Z,32.34
2019-02-27T14:40:44.802Z,32.41
2019-02-27T14:43:13.047Z,32.07
2019-02-27T14:45:41.131Z,32.42
2019-02-27T14:48:10.020Z,32.88
2019-02-27T14:50:38.075Z,33.10
2019-02-27T14:53:06.073Z,33.56
2019-02-27T14:55:36.155Z,33.42
2019-02-27T14:58:03.899Z,33.92
2019-02-27T15:00:32.140Z,34.23
2019-02-27T15:03:01.219Z,35.56
2019-02-27T15:05:29.296Z,34.59
2019-02-27T15:07:57.373Z,34.45
2019-02-27T15:10:25.780Z,34.46
2019-02-27T15:12:55.513Z,34.47
2019-02-27T15:15:25.876Z,34.69
2019-02-27T15:17:54.274Z,34.63
2019-02-27T15:20:24.401Z,35.05
2019-02-27T15:22:52.810Z,34.90
2019-02-27T15:25:21.669Z,35.64
2019-02-27T15:27:49.519Z,34.89
2019-02-27T15:30:19.464Z,35.09
2019-02-27T15:32:47.497Z,35.46
2019-02-27T15:35:15.627Z,35.93
2019-02-27T15:37:43.749Z,36.83
2019-02-27T15:40:13.316Z,36.52
2019-02-27T15:42:42.719Z,36.76
2019-02-27T15:45:11.765Z,37.11
2019-02-27T15:47:39.754Z,36.79
2019-02-27T15:50:08.722Z,38.43
2019-02-27T15:52:38.136Z,39.00
2019-02-27T15:55:06.836Z,40.79
2019-02-27T15:57:35.195Z,41.17
2019-02-27T16:00:03.427Z,39.25
2019-02-27T16:02:34.004Z,39.21
2019-02-27T16:05:03.371Z,40.80
2019-02-27T16:07:31.334Z,39.96
2019-02-27T16:09:59.086Z,39.26
2019-02-27T16:12:26.985Z,41.14
2019-02-27T16:14:54.885Z,41.65
2019-02-27T16:17:22.909Z,40.50
2019-02-27T16:19:50.706Z,39.80
2019-02-27T16:22:18.571Z,40.70
2019-02-27T16:24:46.752Z,44.12
2019-02-27T16:27:14.636Z,45.15
2019-02-27T16:29:42.825Z,46.42
2019-02-27T16:32:13.238Z,47.15
2019-02-27T16:34:40.839Z,46.33
2019-02-27T16:37:08.838Z,44.58
2019-02-27T16:39:41.237Z,46.36
2019-02-27T16:42:06.533Z,45.95
2019-02-27T16:44:34.561Z,48.01
2019-02-27T16:47:03.598Z,49.85
2019-02-27T16:49:31.976Z,49.98
2019-02-27T16:52:00.290Z,50.73
2019-02-27T16:54:28.542Z,48.36
2019-02-27T16:56:58.144Z,49.76
2019-02-27T16:59:26.359Z,48.82
2019-02-27T17:01:54.398Z,51.93
2019-02-27T17:04:22.546Z,52.59
2019-02-27T17:06:52.295Z,52.16
2019-02-27T17:09:20.511Z,52.48
2019-02-27T17:11:48.674Z,51.83
2019-02-27T17:14:16.758Z,51.61
2019-02-27T17:16:45.515Z,49.67
2019-02-27T17:19:14.032Z,49.97
2019-02-27T17:21:41.906Z,50.36
2019-02-27T17:24:10.300Z,51.09
2019-02-27T17:26:39.041Z,51.56
2019-02-27T17:29:08.029Z,51.69
2019-02-27T17:31:36.256Z,52.26
2019-02-27T17:34:04.575Z,53.27
2019-02-27T17:36:32.844Z,53.69
2019-02-27T17:39:00.879Z,53.96
2019-02-27T17:41:28.758Z,53.96
2019-02-27T17:43:57.058Z,54.38
2019-02-27T17:46:25.445Z,54.53
2019-02-27T17:48:53.630Z,54.07
2019-02-27T17:51:21.657Z,54.56
2019-02-27T17:53:49.865Z,55.10
2019-02-27T17:56:17.823Z,55.76
2019-02-27T17:58:46.830Z,55.76
2019-02-27T18:01:17.942Z,56.07
2019-02-27T18:03:46.133Z,56.06
2019-02-27T18:06:15.131Z,55.97
2019-02-27T18:08:43.264Z,56.56
2019-02-27T18:11:12.326Z,56.66
2019-02-27T18:13:41.011Z,57.23
2019-02-27T18:16:08.933Z,57.17
2019-02-27T18:18:37.065Z,57.07
2019-02-27T18:21:04.975Z,57.72
2019-02-27T18:23:32.804Z,57.80
2019-02-27T18:26:00.832Z,58.28
2019-02-27T18:28:32.665Z,58.49
2019-02-27T18:30:59.000Z,58.77
2019-02-27T18:33:27.033Z,58.89
2019-02-27T18:35:55.050Z,59.21
2019-02-27T18:38:27.595Z,59.52
2019-02-27T18:40:53.548Z,59.77
2019-02-27T18:43:21.676Z,59.86
2019-02-27T18:45:50.833Z,59.83
2019-02-27T18:48:19.940Z,60.05
2019-02-27T18:50:48.108Z,60.43
2019-02-27T18:53:16.091Z,60.75
2019-02-27T18:55:44.210Z,60.89
2019-02-27T18:58:12.799Z,60.92
2019-02-27T19:00:41.023Z,61.12
2019-02-27T19:03:08.914Z,61.14
2019-02-27T19:05:38.149Z,61.29
2019-02-27T19:08:07.126Z,61.68
2019-02-27T19:10:34.944Z,61.86
2019-02-27T19:13:03.200Z,62.32
2019-02-27T19:15:31.441Z,62.20
2019-02-27T19:17:59.922Z,62.71
2019-02-27T19:20:29.102Z,62.58
2019-02-27T19:22:57.330Z,63.58
2019-02-27T19:25:25.972Z,63.43
2019-02-27T19:27:54.303Z,63.40
2019-02-27T19:30:22.403Z,63.76
2019-02-27T19:32:50.400Z,63.87
2019-02-27T19:35:22.369Z,64.20
2019-02-27T19:37:50.610Z,64.07
2019-02-27T19:40:19.084Z,64.13
2019-02-27T19:42:48.898Z,64.37
2019-02-27T19:45:18.781Z,64.29
2019-02-27T19:47:49.683Z,63.92
2019-02-27T19:50:18.644Z,64.19
2019-02-27T19:52:46.630Z,64.29
2019-02-27T19:55:14.855Z,64.44
2019-02-27T19:57:44.428Z,64.61
2019-02-27T20:00:14.675Z,64.93
2019-02-27T20:02:42.749Z,65.11
2019-02-27T20:05:11.065Z,65.10
2019-02-27T20:07:39.104Z,64.96
2019-02-27T20:10:09.390Z,65.03
2019-02-27T20:12:37.582Z,65.30
2019-02-27T20:15:08.294Z,65.50
2019-02-27T20:17:37.671Z,65.77
2019-02-27T20:20:06.121Z,65.60
2019-02-27T20:22:33.983Z,65.67
2019-02-27T20:25:01.985Z,65.78
2019-02-27T20:27:32.099Z,66.15
2019-02-27T20:30:00.570Z,66.15
2019-02-27T20:32:29.256Z,66.12
2019-02-27T20:34:57.446Z,66.27
2019-02-27T20:37:25.607Z,66.69
2019-02-27T20:39:58.380Z,67.08
2019-02-27T20:42:23.829Z,66.70
2019-02-27T20:44:52.735Z,67.10
2019-02-27T20:47:21.870Z,67.27
2019-02-27T20:49:50.747Z,67.39
2019-02-27T20:52:19.059Z,67.67
2019-02-27T20:54:47.177Z,67.61
2019-02-27T20:57:15.391Z,67.79
2019-02-27T20:59:43.527Z,68.02
2019-02-27T21:02:11.737Z,68.28
2019-02-27T21:04:40.502Z,68.28
2019-02-27T21:07:08.756Z,68.64
2019-02-27T21:09:37.109Z,68.70
2019-02-27T21:12:07.257Z,68.62
2019-02-27T21:14:35.203Z,68.90
2019-02-27T21:17:03.594Z,69.07
2019-02-27T21:19:33.838Z,69.32
2019-02-27T21:22:01.926Z,69.36
2019-02-27T21:24:30.116Z,69.38
2019-02-27T21:26:58.320Z,69.45
2019-02-27T21:29:26.712Z,69.52
2019-02-27T21:31:54.987Z,69.89
2019-02-27T21:34:23.148Z,69.86
2019-02-27T21:36:51.310Z,69.87
2019-02-27T21:39:22.472Z,70.07
2019-02-27T21:41:49.847Z,70.04
2019-02-27T21:44:25.525Z,70.02
2019-02-27T21:46:48.422Z,70.32
2019-02-27T21:49:17.031Z,70.25
2019-02-27T21:51:48.096Z,70.08
2019-02-27T21:54:15.505Z,70.28
2019-02-27T21:56:43.697Z,70.31
2019-02-27T21:59:11.948Z,70.42
2019-02-27T22:01:40.458Z,70.63
2019-02-27T22:04:09.751Z,70.65
2019-02-27T22:06:40.006Z,70.72
2019-02-27T22:09:10.145Z,70.24
2019-02-27T22:11:38.537Z,70.21
2019-02-27T22:14:06.904Z,70.59
2019-02-27T22:16:35.858Z,70.74
2019-02-27T22:19:04.259Z,71.02
2019-02-27T22:21:34.214Z,70.86
2019-02-27T22:24:02.851Z,71.11
2019-02-27T22:26:34.153Z,71.15
2019-02-27T22:29:01.911Z,71.10
2019-02-27T22:31:30.509Z,71.20
2019-02-27T22:33:58.933Z,71.41
2019-02-27T22:36:27.424Z,71.54
2019-02-27T22:38:59.845Z,71.61
2019-02-27T22:41:25.924Z,71.57
2019-02-27T22:43:55.738Z,71.97
2019-02-27T22:46:24.124Z,71.90
2019-02-27T22:48:52.366Z,72.10
2019-02-27T22:51:20.638Z,72.11
2019-02-27T22:53:48.871Z,72.14
2019-02-27T22:56:17.225Z,72.51
2019-02-27T22:58:45.639Z,72.61
2019-02-27T23:01:28.814Z,72.86
2019-02-27T23:04:06.222Z,72.65
2019-02-27T23:06:34.467Z,72.77
2019-02-27T23:09:04.424Z,72.89
2019-02-27T23:11:34.180Z,72.69
2019-02-27T23:14:03.350Z,72.95
2019-02-27T23:16:31.365Z,73.01
2019-02-27T23:19:03.005Z,73.29
2019-02-27T23:21:32.058Z,72.99
2019-02-27T23:24:00.024Z,73.16
2019-02-27T23:26:27.994Z,73.19
2019-02-27T23:28:55.868Z,73.13
2019-02-27T23:31:23.702Z,73.07
2019-02-27T23:33:51.553Z,73.00
2019-02-27T23:36:22.144Z,73.06
2019-02-27T23:38:49.726Z,73.39
2019-02-27T23:41:22.802Z,73.03
2019-02-27T23:43:49.471Z,73.31
2019-02-27T23:46:18.629Z,73.20
2019-02-27T23:48:47.242Z,73.47
2019-02-27T23:51:16.749Z,73.52
2019-02-27T23:53:44.916Z,74.13
2019-02-27T23:56:12.892Z,73.91
2019-02-27T23:58:41.006Z,73.98
